createdAt,value
2018-12-19T00:00:58.840Z,21.43
2018-12-19T00:03:26.288Z,22.43
2018-12-19T00:05:53.716Z,21.50
2018-12-19T00:08:21.216Z,20.27
2018-12-19T00:10:51.304Z,20.50
2018-12-19T00:13:20.464Z,20.33
2018-12-19T00:15:47.893Z,19.07
2018-12-19T00:18:15.503Z,19.67
2018-12-19T00:20:44.260Z,19.80
2018-12-19T00:23:11.753Z,20.70
2018-12-19T00:25:39.172Z,19.60
2018-12-19T00:28:09.108Z,20.33
2018-12-19T00:30:36.952Z,20.10
2018-12-19T00:33:04.415Z,21.10
2018-12-19T00:35:31.875Z,20.83
2018-12-19T00:37:59.329Z,21.07
2018-12-19T00:40:27.023Z,21.47
2018-12-19T00:42:54.562Z,21.43
2018-12-19T00:45:22.085Z,21.00
2018-12-19T00:47:49.502Z,20.30
2018-12-19T00:50:16.921Z,20.50
2018-12-19T00:52:44.994Z,20.27
2018-12-19T00:55:12.430Z,21.37
2018-12-19T00:57:40.600Z,23.90
2018-12-19T01:00:09.350Z,23.03
2018-12-19T01:02:36.772Z,22.87
2018-12-19T01:05:04.698Z,22.70
2018-12-19T01:07:32.189Z,23.13
2018-12-19T01:09:59.613Z,22.40
2018-12-19T01:12:27.028Z,21.07
2018-12-19T01:14:54.866Z,21.30
2018-12-19T01:17:22.824Z,22.73
2018-12-19T01:19:50.249Z,22.13
2018-12-19T01:22:17.662Z,23.30
2018-12-19T01:24:45.096Z,21.93
2018-12-19T01:27:12.519Z,21.10
2018-12-19T01:29:40.048Z,21.97
2018-12-19T01:32:07.530Z,22.23
2018-12-19T01:34:34.956Z,22.23
2018-12-19T01:37:02.387Z,23.30
2018-12-19T01:39:30.441Z,21.40
2018-12-19T01:41:57.920Z,19.93
2018-12-19T01:44:25.345Z,21.83
2018-12-19T01:46:52.802Z,21.83
2018-12-19T01:49:20.225Z,19.97
2018-12-19T01:51:47.726Z,20.73
2018-12-19T01:54:15.224Z,19.83
2018-12-19T01:56:42.644Z,20.07
2018-12-19T01:59:10.076Z,20.10
2018-12-19T02:01:37.589Z,20.90
2018-12-19T02:04:05.556Z,19.93
2018-12-19T02:06:32.972Z,20.47
2018-12-19T02:09:00.616Z,19.60
2018-12-19T02:11:28.108Z,19.53
2018-12-19T02:13:55.536Z,21.80
2018-12-19T02:16:23.752Z,20.13
2018-12-19T02:18:51.538Z,19.70
2018-12-19T02:21:18.976Z,20.63
2018-12-19T02:23:46.604Z,21.00
2018-12-19T02:26:14.034Z,20.40
2018-12-19T02:28:41.480Z,20.63
2018-12-19T02:31:08.911Z,20.50
2018-12-19T02:33:37.453Z,20.03
2018-12-19T02:36:04.920Z,20.83
2018-12-19T02:38:32.348Z,19.70
2018-12-19T02:40:59.768Z,20.23
2018-12-19T02:43:27.259Z,18.83
2018-12-19T02:45:54.685Z,19.73
2018-12-19T02:48:22.425Z,19.63
2018-12-19T02:50:49.825Z,20.23
2018-12-19T02:53:17.588Z,19.13
2018-12-19T02:55:44.977Z,20.40
2018-12-19T02:58:12.520Z,20.33
2018-12-19T03:00:39.947Z,20.23
2018-12-19T03:03:07.689Z,22.10
2018-12-19T03:05:35.162Z,20.60
2018-12-19T03:08:02.709Z,21.57
2018-12-19T03:10:30.210Z,20.43
2018-12-19T03:12:57.705Z,20.80
2018-12-19T03:15:25.124Z,20.70
2018-12-19T03:17:53.201Z,21.47
2018-12-19T03:20:21.052Z,19.47
2018-12-19T03:22:57.723Z,21.90
2018-12-19T03:25:25.212Z,21.20
2018-12-19T03:27:52.679Z,19.13
2018-12-19T03:30:20.111Z,21.37
2018-12-19T03:32:47.624Z,20.20
2018-12-19T03:35:15.460Z,20.43
2018-12-19T03:37:42.900Z,19.63
2018-12-19T03:40:10.753Z,20.57
2018-12-19T03:42:38.165Z,18.97
2018-12-19T03:45:06.864Z,20.77
2018-12-19T03:47:34.497Z,20.90
2018-12-19T03:50:01.997Z,20.07
2018-12-19T03:52:29.421Z,20.73
2018-12-19T03:54:56.850Z,20.80
2018-12-19T03:57:24.827Z,20.87
2018-12-19T03:59:52.557Z,20.27
2018-12-19T04:02:20.043Z,20.20
2018-12-19T04:04:47.460Z,21.70
2018-12-19T04:07:14.909Z,19.87
2018-12-19T04:09:42.365Z,18.37
2018-12-19T04:12:09.789Z,19.10
2018-12-19T04:14:37.313Z,17.83
2018-12-19T04:17:04.717Z,18.47
2018-12-19T04:19:32.668Z,17.87
2018-12-19T04:22:00.179Z,20.67
2018-12-19T04:24:28.113Z,18.07
2018-12-19T04:26:55.532Z,19.80
2018-12-19T04:29:22.967Z,19.43
2018-12-19T04:31:50.408Z,18.07
2018-12-19T04:34:18.244Z,19.97
2018-12-19T04:36:45.664Z,21.00
2018-12-19T04:39:13.101Z,20.03
2018-12-19T04:41:40.641Z,20.07
2018-12-19T04:44:08.124Z,19.67
2018-12-19T04:46:35.553Z,20.47
2018-12-19T04:49:03.493Z,21.40
2018-12-19T04:51:30.933Z,22.07
2018-12-19T04:53:58.431Z,20.97
2018-12-19T04:56:25.851Z,22.33
2018-12-19T04:58:53.276Z,19.53
2018-12-19T05:01:20.708Z,18.70
2018-12-19T05:03:48.164Z,18.77
2018-12-19T05:06:15.591Z,19.37
2018-12-19T05:08:43.705Z,19.23
2018-12-19T05:11:11.225Z,19.33
2018-12-19T05:13:38.675Z,19.20
2018-12-19T05:16:06.097Z,18.57
2018-12-19T05:18:35.659Z,19.97
2018-12-19T05:21:03.221Z,21.83
2018-12-19T05:23:31.041Z,21.73
2018-12-19T05:25:58.477Z,22.40
2018-12-19T05:28:25.972Z,23.20
2018-12-19T05:30:53.396Z,21.63
2018-12-19T05:33:20.832Z,20.77
2018-12-19T05:35:48.261Z,20.67
2018-12-19T05:38:15.676Z,20.87
2018-12-19T05:40:43.098Z,19.83
2018-12-19T05:43:10.524Z,21.23
2018-12-19T05:45:37.945Z,21.53
2018-12-19T05:48:05.364Z,20.27
2018-12-19T05:50:32.790Z,22.97
2018-12-19T05:53:00.229Z,22.50
2018-12-19T05:55:27.651Z,21.87
2018-12-19T05:57:55.078Z,22.20
2018-12-19T06:00:22.500Z,23.50
2018-12-19T06:02:50.330Z,21.50
2018-12-19T06:05:17.792Z,20.37
2018-12-19T06:07:45.232Z,21.00
2018-12-19T06:10:12.652Z,24.77
2018-12-19T06:12:40.692Z,23.87
2018-12-19T06:15:08.184Z,21.53
2018-12-19T06:17:35.601Z,22.60
2018-12-19T06:20:03.070Z,21.77
2018-12-19T06:22:30.496Z,21.03
2018-12-19T06:24:57.952Z,20.63
2018-12-19T06:27:25.461Z,21.17
2018-12-19T06:29:52.981Z,21.17
2018-12-19T06:32:20.387Z,21.20
2018-12-19T06:34:47.808Z,22.00
2018-12-19T06:37:15.238Z,20.33
2018-12-19T06:39:42.653Z,22.00
2018-12-19T06:42:10.117Z,22.10
2018-12-19T06:44:37.549Z,20.80
2018-12-19T06:47:05.044Z,21.30
2018-12-19T06:49:33.008Z,20.83
2018-12-19T06:52:01.762Z,22.63
2018-12-19T06:54:29.832Z,22.43
2018-12-19T06:56:57.261Z,21.50
2018-12-19T06:59:24.700Z,21.33
2018-12-19T07:01:52.117Z,20.70
2018-12-19T07:04:19.540Z,19.37
2018-12-19T07:06:47.012Z,19.80
2018-12-19T07:09:15.532Z,18.23
2018-12-19T07:11:43.561Z,20.37
2018-12-19T07:14:11.214Z,18.30
2018-12-19T07:16:43.387Z,18.70
2018-12-19T07:19:08.632Z,18.93
2018-12-19T07:21:36.508Z,19.80
2018-12-19T07:24:04.790Z,19.53
2018-12-19T07:26:32.200Z,18.67
2018-12-19T07:28:59.624Z,19.17
2018-12-19T07:31:27.182Z,22.23
2018-12-19T07:33:54.599Z,20.13
2018-12-19T07:36:22.111Z,18.27
2018-12-19T07:38:49.633Z,20.07
2018-12-19T07:41:17.054Z,22.47
2018-12-19T07:43:44.548Z,19.67
2018-12-19T07:46:12.488Z,17.87
2018-12-19T07:48:40.056Z,16.90
2018-12-19T07:51:08.248Z,17.63
2018-12-19T07:53:35.671Z,18.93
2018-12-19T07:56:03.485Z,18.53
2018-12-19T07:58:31.805Z,18.27
2018-12-19T08:00:59.196Z,19.37
2018-12-19T08:03:26.652Z,17.80
2018-12-19T08:05:54.607Z,17.93
2018-12-19T08:08:22.111Z,17.17
2018-12-19T08:10:52.267Z,16.97
2018-12-19T08:13:18.984Z,17.97
2018-12-19T08:15:46.455Z,17.20
2018-12-19T08:18:13.948Z,16.67
2018-12-19T08:20:42.309Z,15.63
2018-12-19T08:23:09.820Z,15.60
2018-12-19T08:25:37.240Z,15.50
2018-12-19T08:28:04.704Z,15.87
2018-12-19T08:30:32.265Z,16.33
2018-12-19T08:32:59.683Z,16.50
2018-12-19T08:35:27.153Z,17.00
2018-12-19T08:37:54.696Z,15.23
2018-12-19T08:40:22.110Z,17.90
2018-12-19T08:42:49.527Z,17.50
2018-12-19T08:45:17.500Z,15.97
2018-12-19T08:47:44.961Z,15.57
2018-12-19T08:50:12.452Z,14.20
2018-12-19T08:52:40.433Z,15.23
2018-12-19T08:55:08.813Z,14.50
2018-12-19T08:57:36.279Z,14.13
2018-12-19T09:00:08.144Z,15.07
2018-12-19T09:02:36.154Z,15.13
2018-12-19T09:05:05.259Z,15.37
2018-12-19T09:07:33.316Z,13.97
2018-12-19T09:10:00.776Z,14.33
2018-12-19T09:12:28.220Z,13.57
2018-12-19T09:14:57.598Z,14.23
2018-12-19T09:20:17.925Z,14.03
2018-12-19T09:22:45.347Z,14.13
2018-12-19T09:25:13.035Z,13.53
2018-12-19T09:27:40.453Z,12.83
2018-12-19T09:30:10.560Z,13.27
2018-12-19T09:32:38.137Z,12.50
2018-12-19T09:35:05.672Z,12.50
2018-12-19T09:37:33.084Z,12.47
2018-12-19T09:40:00.584Z,12.03
2018-12-19T09:42:28.010Z,12.90
2018-12-19T09:44:55.520Z,12.10
2018-12-19T09:47:22.944Z,12.17
2018-12-19T09:49:51.354Z,11.30
2018-12-19T09:52:18.760Z,12.07
2018-12-19T09:54:46.186Z,12.23
2018-12-19T09:57:13.617Z,13.40
2018-12-19T09:59:41.032Z,12.97
2018-12-19T10:02:09.089Z,12.80
2018-12-19T10:04:43.005Z,13.13
2018-12-19T10:10:04.616Z,12.53
2018-12-19T10:12:32.059Z,13.20
2018-12-19T10:14:59.482Z,11.63
2018-12-19T10:17:28.715Z,13.70
2018-12-19T10:19:56.120Z,13.23
2018-12-19T10:22:29.241Z,13.03
2018-12-19T10:25:02.561Z,13.13
2018-12-19T10:27:30.780Z,13.37
2018-12-19T10:29:58.207Z,13.57
2018-12-19T10:32:27.653Z,13.30
2018-12-19T10:34:55.076Z,12.47
2018-12-19T10:37:22.499Z,12.50
2018-12-19T10:39:50.550Z,12.30
2018-12-19T10:42:18.606Z,12.10
2018-12-19T10:44:46.042Z,12.20
2018-12-19T10:47:13.513Z,10.73
2018-12-19T10:49:41.048Z,11.43
2018-12-19T10:52:08.477Z,12.17
2018-12-19T10:54:35.900Z,11.70
2018-12-19T10:57:05.756Z,11.53
2018-12-19T10:59:33.186Z,10.87
2018-12-19T11:02:01.162Z,11.40
2018-12-19T11:04:29.053Z,11.60
2018-12-19T11:06:56.499Z,13.30
2018-12-19T11:09:23.933Z,11.63
2018-12-19T11:11:51.912Z,10.77
2018-12-19T11:14:19.345Z,11.80
2018-12-19T11:16:47.377Z,10.77
2018-12-19T11:19:14.787Z,10.73
2018-12-19T11:21:43.504Z,10.53
2018-12-19T11:24:11.424Z,10.83
2018-12-19T11:26:39.084Z,10.57
2018-12-19T11:29:06.504Z,11.50
2018-12-19T11:31:34.033Z,11.43
2018-12-19T11:34:01.470Z,12.03
2018-12-19T11:36:28.964Z,10.20
2018-12-19T11:38:56.381Z,10.00
2018-12-19T11:41:24.524Z,10.47
2018-12-19T11:43:52.213Z,10.90
2018-12-19T11:46:19.612Z,10.63
2018-12-19T11:48:47.425Z,10.10
2018-12-19T11:51:14.813Z,10.60
2018-12-19T11:53:42.236Z,10.50
2018-12-19T11:56:10.080Z,11.00
2018-12-19T11:58:37.931Z,11.03
2018-12-19T12:01:07.923Z,11.83
2018-12-19T12:03:35.956Z,11.83
2018-12-19T12:06:03.719Z,12.43
2018-12-19T12:08:31.195Z,11.10
2018-12-19T12:10:59.049Z,12.23
2018-12-19T12:13:26.464Z,12.37
2018-12-19T12:15:53.902Z,13.03
2018-12-19T12:18:21.336Z,12.40
2018-12-19T12:20:50.940Z,12.33
2018-12-19T12:23:18.361Z,13.70
2018-12-19T12:25:48.368Z,14.07
2018-12-19T12:28:15.785Z,13.40
2018-12-19T12:30:43.208Z,14.30
2018-12-19T12:33:11.024Z,18.67
2018-12-19T12:35:38.788Z,14.97
2018-12-19T12:38:06.217Z,14.67
2018-12-19T12:40:34.056Z,14.27
2018-12-19T12:43:01.448Z,14.53
2018-12-19T12:45:28.860Z,15.23
2018-12-19T12:47:56.285Z,19.50
2018-12-19T12:50:24.659Z,14.90
2018-12-19T12:52:53.026Z,14.50
2018-12-19T12:55:20.558Z,17.27
2018-12-19T12:57:48.106Z,26.40
2018-12-19T13:00:16.568Z,23.40
2018-12-19T13:02:43.991Z,22.47
2018-12-19T13:05:11.440Z,15.33
2018-12-19T13:07:39.265Z,14.33
2018-12-19T13:10:08.451Z,13.70
2018-12-19T13:12:35.877Z,13.20
2018-12-19T13:15:05.764Z,13.97
2018-12-19T13:17:33.189Z,14.27
2018-12-19T13:20:01.150Z,14.27
2018-12-19T13:22:31.282Z,14.27
2018-12-19T13:24:58.972Z,14.60
2018-12-19T13:27:26.420Z,13.10
2018-12-19T13:29:57.312Z,12.97
2018-12-19T13:32:24.737Z,12.20
2018-12-19T13:34:52.167Z,12.37
2018-12-19T13:37:20.028Z,12.90
2018-12-19T13:39:48.096Z,12.77
2018-12-19T13:42:15.925Z,11.50
2018-12-19T13:44:43.340Z,11.90
2018-12-19T13:47:10.767Z,13.93
2018-12-19T13:49:38.207Z,13.23
2018-12-19T13:52:05.639Z,12.47
2018-12-19T13:54:33.056Z,12.90
2018-12-19T13:57:00.478Z,13.73
2018-12-19T13:59:27.909Z,13.23
2018-12-19T14:01:55.449Z,13.90
2018-12-19T14:04:22.916Z,14.70
2018-12-19T14:06:50.404Z,14.73
2018-12-19T14:09:17.904Z,15.13
2018-12-19T14:11:45.400Z,15.27
2018-12-19T14:14:12.820Z,15.50
2018-12-19T14:16:40.793Z,15.93
2018-12-19T14:19:08.660Z,14.87
2018-12-19T14:21:36.083Z,14.93
2018-12-19T14:24:04.367Z,14.70
2018-12-19T14:26:33.230Z,14.53
2018-12-19T14:29:00.651Z,14.80
2018-12-19T14:31:28.119Z,16.40
2018-12-19T14:33:55.534Z,15.33
2018-12-19T14:36:22.954Z,15.37
2018-12-19T14:38:50.619Z,16.53
2018-12-19T14:41:18.612Z,20.67
2018-12-19T14:43:46.040Z,20.63
2018-12-19T14:46:13.579Z,21.27
2018-12-19T14:48:40.996Z,24.20
2018-12-19T14:51:08.872Z,23.00
2018-12-19T14:53:36.275Z,19.97
2018-12-19T14:56:03.764Z,20.47
2018-12-19T14:58:31.574Z,19.17
2018-12-19T15:00:59.024Z,21.03
2018-12-19T15:03:26.441Z,23.07
2018-12-19T15:05:53.892Z,21.40
2018-12-19T15:08:21.344Z,22.10
2018-12-19T15:10:49.261Z,20.70
2018-12-19T15:13:16.767Z,19.87
2018-12-19T15:15:46.168Z,18.07
2018-12-19T15:18:13.585Z,19.50
2018-12-19T15:20:41.008Z,19.17
2018-12-19T15:23:08.430Z,18.97
2018-12-19T15:25:35.868Z,18.80
2018-12-19T15:28:03.324Z,18.10
2018-12-19T15:30:31.944Z,20.53
2018-12-19T15:32:59.380Z,19.97
2018-12-19T15:35:26.832Z,20.30
2018-12-19T15:37:54.252Z,20.83
2018-12-19T15:40:21.671Z,18.97
2018-12-19T15:42:49.093Z,19.37
2018-12-19T15:45:17.980Z,20.23
2018-12-19T15:47:46.618Z,20.70
2018-12-19T15:50:15.960Z,19.93
2018-12-19T15:52:44.701Z,19.73
2018-12-19T15:55:12.503Z,20.17
2018-12-19T15:57:39.949Z,19.87
2018-12-19T16:00:10.162Z,19.27
2018-12-19T16:02:37.657Z,19.73
2018-12-19T16:05:05.173Z,22.63
2018-12-19T16:07:32.610Z,19.33
2018-12-19T16:10:00.913Z,20.03
2018-12-19T16:12:28.808Z,21.53
2018-12-19T16:14:56.792Z,21.53
2018-12-19T16:17:24.758Z,20.03
2018-12-19T16:19:52.173Z,20.57
2018-12-19T16:22:19.589Z,21.00
2018-12-19T16:24:47.103Z,21.73
2018-12-19T16:27:14.609Z,20.07
2018-12-19T16:29:43.592Z,20.40
2018-12-19T16:32:11.731Z,21.30
2018-12-19T16:34:40.763Z,20.07
2018-12-19T16:37:08.216Z,21.80
2018-12-19T16:39:35.685Z,20.23
2018-12-19T16:42:03.153Z,20.10
2018-12-19T16:44:30.700Z,22.30
2018-12-19T16:46:58.123Z,21.43
2018-12-19T16:49:25.549Z,19.57
2018-12-19T16:51:52.968Z,22.07
2018-12-19T16:54:20.398Z,18.13
2018-12-19T16:56:47.849Z,18.83
2018-12-19T16:59:15.344Z,20.27
2018-12-19T17:01:42.797Z,20.23
2018-12-19T17:04:10.251Z,20.40
2018-12-19T17:06:37.686Z,19.17
2018-12-19T17:09:06.962Z,22.93
2018-12-19T17:11:34.384Z,24.93
2018-12-19T17:14:01.832Z,29.27
2018-12-19T17:16:29.262Z,37.37
2018-12-19T17:18:56.683Z,30.30
2018-12-19T17:21:24.171Z,28.90
2018-12-19T17:23:51.668Z,30.57
2018-12-19T17:26:19.189Z,30.30
2018-12-19T17:28:46.682Z,26.73
2018-12-19T17:31:14.084Z,28.27
2018-12-19T17:33:41.576Z,29.97
2018-12-19T17:36:09.000Z,27.73
2018-12-19T17:38:36.421Z,28.03
2018-12-19T17:41:05.092Z,25.83
2018-12-19T17:43:32.509Z,25.27
2018-12-19T17:46:00.600Z,25.97
2018-12-19T17:48:28.028Z,23.37
2018-12-19T17:50:55.455Z,23.17
2018-12-19T17:53:25.439Z,22.40
2018-12-19T17:55:52.854Z,23.90
2018-12-19T17:58:20.316Z,24.33
2018-12-19T18:00:47.744Z,25.43
2018-12-19T18:03:16.605Z,26.40
2018-12-19T18:05:44.560Z,24.00
2018-12-19T18:08:11.980Z,28.37
2018-12-19T18:10:40.112Z,27.20
2018-12-19T18:13:08.297Z,24.87
2018-12-19T18:15:36.368Z,23.70
2018-12-19T18:18:03.788Z,24.33
2018-12-19T18:20:31.208Z,25.97
2018-12-19T18:22:58.680Z,27.53
2018-12-19T18:25:26.108Z,28.03
2018-12-19T18:27:53.537Z,28.10
2018-12-19T18:30:20.952Z,25.63
2018-12-19T18:32:48.381Z,23.73
2018-12-19T18:35:19.092Z,26.30
2018-12-19T18:37:46.589Z,24.60
2018-12-19T18:40:14.025Z,27.90
2018-12-19T18:42:41.521Z,32.77
2018-12-19T18:45:11.973Z,34.93
2018-12-19T18:47:38.400Z,35.97
2018-12-19T18:50:08.322Z,35.70
2018-12-19T18:52:36.343Z,33.17
2018-12-19T18:55:06.528Z,33.33
2018-12-19T18:57:34.568Z,28.70
2018-12-19T19:00:01.988Z,29.17
2018-12-19T19:02:29.491Z,28.70
2018-12-19T19:04:57.046Z,27.10
2018-12-19T19:07:24.478Z,30.03
2018-12-19T19:09:51.928Z,28.00
2018-12-19T19:12:19.352Z,29.20
2018-12-19T19:14:46.900Z,27.43
2018-12-19T19:17:14.377Z,26.77
2018-12-19T19:19:41.874Z,26.73
2018-12-19T19:22:09.304Z,25.50
2018-12-19T19:24:36.713Z,25.47
2018-12-19T19:27:04.205Z,26.73
2018-12-19T19:29:31.657Z,27.27
2018-12-19T19:31:59.120Z,26.73
2018-12-19T19:34:26.552Z,27.53
2018-12-19T19:36:54.092Z,26.00
2018-12-19T19:39:21.613Z,27.03
2018-12-19T19:41:49.043Z,25.80
2018-12-19T19:44:16.536Z,23.43
2018-12-19T19:46:45.516Z,22.10
2018-12-19T19:49:13.616Z,21.33
2018-12-19T19:51:41.049Z,19.70
2018-12-19T19:54:08.545Z,19.80
2018-12-19T19:56:35.966Z,18.33
2018-12-19T19:59:03.429Z,20.03
2018-12-19T20:01:30.852Z,19.07
2018-12-19T20:03:58.272Z,17.40
2018-12-19T20:06:25.773Z,19.70
2018-12-19T20:08:53.737Z,19.37
2018-12-19T20:11:21.178Z,18.23
2018-12-19T20:13:48.581Z,20.93
2018-12-19T20:16:16.254Z,21.13
2018-12-19T20:18:43.672Z,21.10
2018-12-19T20:21:11.139Z,20.43
2018-12-19T20:23:38.674Z,20.67
2018-12-19T20:26:06.097Z,20.40
2018-12-19T20:28:34.170Z,20.63
2018-12-19T20:31:01.584Z,19.57
2018-12-19T20:33:29.088Z,22.90
2018-12-19T20:35:56.513Z,23.43
2018-12-19T20:38:23.927Z,25.00
2018-12-19T20:40:51.360Z,22.87
2018-12-19T20:43:19.171Z,23.83
2018-12-19T20:45:46.664Z,23.77
2018-12-19T20:48:14.200Z,24.63
2018-12-19T20:50:41.620Z,23.83
2018-12-19T20:53:09.088Z,23.47
2018-12-19T20:55:36.520Z,24.47
2018-12-19T20:58:04.720Z,28.00
2018-12-19T21:00:34.804Z,24.33
2018-12-19T21:03:02.229Z,26.90
2018-12-19T21:05:30.038Z,28.13
2018-12-19T21:07:57.441Z,25.77
2018-12-19T21:10:24.851Z,28.87
2018-12-19T21:12:52.296Z,29.33
2018-12-19T21:15:20.443Z,27.73
2018-12-19T21:17:53.594Z,28.93
2018-12-19T21:20:21.068Z,31.23
2018-12-19T21:22:49.811Z,27.40
2018-12-19T21:25:17.813Z,26.37
2018-12-19T21:27:45.232Z,28.83
2018-12-19T21:30:12.700Z,30.03
2018-12-19T21:32:40.122Z,28.27
2018-12-19T21:35:07.619Z,29.20
2018-12-19T21:37:37.023Z,28.80
2018-12-19T21:40:05.302Z,28.77
2018-12-19T21:42:32.794Z,25.83
2018-12-19T21:45:00.926Z,32.10
2018-12-19T21:47:28.443Z,30.67
2018-12-19T21:49:57.968Z,32.57
2018-12-19T21:52:25.368Z,32.47
2018-12-19T21:54:52.784Z,33.03
2018-12-19T21:57:20.215Z,25.93
2018-12-19T21:59:48.400Z,26.90
2018-12-19T22:02:15.949Z,29.07
2018-12-19T22:04:43.454Z,26.63
2018-12-19T22:07:11.575Z,23.57
2018-12-19T22:09:38.996Z,26.07
2018-12-19T22:12:06.496Z,24.53
2018-12-19T22:14:34.725Z,25.50
2018-12-19T22:17:08.289Z,26.87
2018-12-19T22:19:35.740Z,23.87
2018-12-19T22:22:03.579Z,24.07
2018-12-19T22:24:31.110Z,25.63
2018-12-19T22:26:58.580Z,23.17
2018-12-19T22:29:26.428Z,23.73
2018-12-19T22:31:54.013Z,21.37
2018-12-19T22:34:21.427Z,26.20
2018-12-19T22:36:48.940Z,22.83
2018-12-19T22:39:18.223Z,24.50
2018-12-19T22:41:46.846Z,26.37
2018-12-19T22:44:14.390Z,24.57
2018-12-19T22:46:44.531Z,25.10
2018-12-19T22:49:18.604Z,23.53
2018-12-19T22:51:46.439Z,22.83
2018-12-19T22:54:13.904Z,24.20
2018-12-19T22:56:41.362Z,21.37
2018-12-19T22:59:11.413Z,20.77
2018-12-19T23:01:45.226Z,22.40
2018-12-19T23:04:13.372Z,23.97
2018-12-19T23:06:40.873Z,26.20
2018-12-19T23:09:08.962Z,26.77
2018-12-19T23:11:36.813Z,23.33
2018-12-19T23:14:04.417Z,23.30
2018-12-19T23:16:31.928Z,22.73
2018-12-19T23:18:59.453Z,24.30
2018-12-19T23:21:26.950Z,23.43
2018-12-19T23:23:54.465Z,23.17
2018-12-19T23:26:22.006Z,23.00
2018-12-19T23:28:51.506Z,22.77
2018-12-19T23:31:19.033Z,22.23
2018-12-19T23:33:46.956Z,23.17
2018-12-19T23:36:14.943Z,22.87
2018-12-19T23:38:42.448Z,21.57
2018-12-19T23:41:10.043Z,22.63
2018-12-19T23:43:37.539Z,22.47
2018-12-19T23:46:04.980Z,23.17
2018-12-19T23:48:32.419Z,20.37
2018-12-19T23:50:59.842Z,22.80
2018-12-19T23:53:30.009Z,22.80
2018-12-19T23:55:57.465Z,23.60
2018-12-19T23:58:25.461Z,25.13
